• Join FlightAware (Why Join?)
  • Login
  • US Flag 
10:20AM EDT


 

Airport Tracker/Info


-or-


 

Live Flight TrackerFlight Track Log ✈ N858AP ✈ 05-May-2012 ✈ CYFB - BGSF / SFJ

Flight Track Log - Related Links

Times and Time Zones

All times are in EDT time to prevent confusion due to time zone crossing. See the N858AP flight status page for this flight to view local times or setup timezone preferences in your user account.

Time Position Orientation Groundspeed Altitude Reporting Facility
EDT Latitude Longitude Course Direction KTS MPH feet Rate Location/Type
11:25AM 63.8167 -68.5667 90° East 130 150 1,400  Level Montreal Center
11:30AM 63.8167 -68.3333 36° Northeast 190 219 5,000 660 Climbing Montreal Center
11:31AM 63.8667 -68.2500 66° East 190 219 5,600 840 Climbing Montreal Center
11:32AM 63.8833 -68.1667 66° East 150 173 6,700 900 Climbing Montreal Center
11:33AM 63.9000 -68.0833 108° East 140 161 7,500 780 Climbing Montreal Center
11:34AM 63.8833 -67.9667 90° East 140 161 8,300 660 Climbing Montreal Center
11:35AM 63.8833 -67.9000 72° East 140 161 8,900 600 Climbing Montreal Center
11:36AM 63.9000 -67.7833 114° Southeast 140 161 9,500 540 Climbing Montreal Center
11:37AM 63.8833 -67.7000 90° East 150 173 10,000 480 Climbing Montreal Center
11:38AM 63.8833 -67.6333 72° East 150 173 10,500 480 Climbing Montreal Center
11:39AM 63.9000 -67.5167 108° East 150 173 11,000 240 Climbing Montreal Center
11:40AM 63.8833 -67.4000 72° East 170 196 11,000  Level Montreal Center
11:41AM 63.9000 -67.2833 90° East 180 207 11,000  Level Montreal Center
11:42AM 63.9000 -67.1667 108° East 190 219 11,000  Level Montreal Center
11:43AM 63.8833 -67.0500 72° East 190 219 11,000  Level Montreal Center
11:44AM 63.9000 -66.9333 72° East 190 219 11,000  Level Montreal Center
11:45AM 63.9167 -66.8167 60° Northeast 200 230 11,000  Level Montreal Center
11:46AM 63.9500 -66.6833 90° East 200 230 11,000  Level Montreal Center
11:47AM 63.9500 -66.5667 57° Northeast 200 230 11,000  Level Montreal Center
11:48AM 63.9833 -66.4500 60° Northeast 200 230 11,000  Level Montreal Center
11:49AM 64.0167 -66.3167 65° Northeast 200 230 11,000  Level Montreal Center
11:50AM 64.0333 -66.2333 76° East 200 230 11,000  Level Montreal Center
11:51AM 64.0500 -66.0833 65° Northeast 210 242 11,000  Level Montreal Center
11:52AM 64.0667 -66.0000 60° Northeast 210 242 11,000  Level Montreal Center
11:53AM 64.1000 -65.8667 72° East 210 242 11,000  Level Montreal Center
11:54AM 64.1167 -65.7500 60° Northeast 210 242 11,000  Level Montreal Center
11:55AM 64.1500 -65.6167 90° East 210 242 11,000  Level Montreal Center
11:56AM 64.1500 -65.5000 57° Northeast 210 242 11,000  Level Montreal Center
11:57AM 64.1833 -65.3833 74° East 210 242 11,000  Level Montreal Center
11:58AM 64.2000 -65.2500 57° Northeast 210 242 11,000  Level Montreal Center
11:59AM 64.2333 -65.1333 74° East 210 242 11,000  Level Montreal Center
12:00PM 64.2500 -65.0000 72° East 210 242 11,000  Level Montreal Center
12:01PM 64.2667 -64.8833 74° East 210 242 11,000  Level Montreal Center
12:02PM 64.2833 -64.7500 57° Northeast 210 242 11,000  Level Montreal Center
12:03PM 64.3167 -64.6333 74° East 210 242 11,000  Level Montreal Center
12:04PM 64.3333 -64.5000 72° East 210 242 11,000  Level Montreal Center
12:05PM 64.3500 -64.3833 74° East 200 230 11,000  Level Montreal Center
12:06PM 64.3667 -64.2500 56° Northeast 200 230 11,000  Level Montreal Center
12:07PM 64.4000 -64.1333 74° East 210 242 11,000  Level Montreal Center
12:08PM 64.4167 -64.0000 74° East 200 230 11,000  Level Montreal Center
12:09PM 64.4333 -63.8667 72° East 210 242 11,000  Level Montreal Center
12:10PM 64.4500 -63.7500 47° Northeast 200 230 11,000  Level Montreal Center
12:11PM 64.4833 -63.6667 74° East 210 242 11,000  Level Montreal Center
12:12PM 64.5000 -63.5333 74° East 200 230 11,000  Level Montreal Center
12:13PM 64.5167 -63.4000 72° East 200 230 11,000  Level Montreal Center
12:14PM 64.5333 -63.2833 74° East 200 230 11,000  Level Montreal Center
12:15PM 64.5500 -63.1500 74° East 210 242 11,000  Level Montreal Center
12:16PM 64.5667 -63.0167 56° Northeast 200 230 11,000  Level Montreal Center
12:17PM 64.6000 -62.9000 69° East 200 230 11,000  Level Montreal Center
12:18PM 64.6167 -62.8000 75° East 210 242 11,000  Level Montreal Center
12:19PM 64.6333 -62.6500 74° East 200 230 11,000  Level Montreal Center
12:20PM 64.6500 -62.5167 74° East 210 242 11,000  Level Montreal Center
12:21PM 64.6667 -62.3833 47° Northeast 210 242 11,000  Level Montreal Center
12:22PM 64.7000 -62.3000 78° East 210 242 11,000  Level Montreal Center
12:23PM 64.7167 -62.1167 71° East 210 242 11,000  Level Montreal Center
12:24PM 64.7333 -62.0000 74° East 210 242 11,000  Level Montreal Center
12:25PM 64.7500 -61.8667 74° East 210 242 11,000  Level Montreal Center
12:26PM 64.7667 -61.7333 71° East 240 276 11,000  Level Montreal Center
12:27PM 64.7833 -61.6167 60° Northeast 220 253 11,000  Level Montreal Center
12:28PM 64.8167 -61.4833 74° East 220 253 11,000  Level Montreal Center
12:29PM 64.8333 -61.3500 74° East 210 242 11,000  Level Montreal Center
12:30PM 64.8500 -61.2167 90° East 210 242 11,000  Level Montreal Center
12:31PM 64.8500 -61.0500 59° Northeast 200 230 11,000  Level Montreal Center
12:32PM 64.8833 -60.9167 52° Northeast 210 242 11,000  Level Montreal Center
12:33PM 64.9167 -60.8167 90° East 210 242 11,000  Level Montreal Center
12:34PM 64.9167 -60.6667 74° East 220 253 11,000  Level Montreal Center
12:35PM 64.9333 -60.5333 59° Northeast 220 253 11,000  Level Montreal Center
12:36PM 64.9667 -60.4000 73° East 210 242 11,000  Level Montreal Center
12:37PM 64.9833 -60.2667 73° East 200 230 11,000  Level Montreal Center
12:38PM 65.0000 -60.1333 90° East 220 253 11,000  Level Montreal Center
12:39PM 65.0000 -60.0000 73° East 210 242 11,000  Level Montreal Center
12:40PM 65.0167 -59.8667 40° Northeast 210 242 11,000  Level Montreal Center
12:41PM 65.0667 -59.7667 73° East 210 242 11,000  Level Montreal Center
12:42PM 65.0833 -59.6333 52° Northeast 210 242 11,000  Level Montreal Center
12:43PM 65.1167 -59.5333 52° Northeast 220 253 11,000  Level Montreal Center
12:44PM 65.1667 -59.3833 73° East 220 253 11,000  Level Montreal Center
12:45PM 65.1833 -59.2500 40° Northeast 220 253 11,000  Level Montreal Center
12:46PM 65.2167 -59.1833 59° Northeast 210 242 11,000  Level Montreal Center
12:54PM 65.4357 -58.2906 60° Northeast  Level FlightAware Approximate
12:55PM 65.4630 -58.1768 60° Northeast  Level FlightAware Approximate
12:56PM 65.4902 -58.0627 60° Northeast  Level FlightAware Approximate
12:57PM 65.5173 -57.9484 60° Northeast  Level FlightAware Approximate
12:58PM 65.5444 -57.8339 60° Northeast  Level FlightAware Approximate
12:59PM 65.5713 -57.7191 60° Northeast  Level FlightAware Approximate
01:00PM 65.5982 -57.6041 61° Northeast  Level FlightAware Approximate
01:01PM 65.6250 -57.4888 61° Northeast  Level FlightAware Approximate
01:02PM 65.6516 -57.3733 61° Northeast  Level FlightAware Approximate
01:03PM 65.6783 -57.2576 61° Northeast  Level FlightAware Approximate
01:04PM 65.7048 -57.1416 61° Northeast  Level FlightAware Approximate
01:05PM 65.7312 -57.0254 61° Northeast  Level FlightAware Approximate
01:06PM 65.7575 -56.9090 61° Northeast  Level FlightAware Approximate
01:07PM 65.7838 -56.7923 61° Northeast  Level FlightAware Approximate
01:08PM 65.8099 -56.6754 61° Northeast  Level FlightAware Approximate
01:09PM 65.8360 -56.5582 62° Northeast  Level FlightAware Approximate
01:10PM 65.8620 -56.4408 62° Northeast  Level FlightAware Approximate
01:11PM 65.8878 -56.3232 62° Northeast  Level FlightAware Approximate
01:12PM 65.9137 -56.2054 62° Northeast  Level FlightAware Approximate
01:13PM 65.9394 -56.0873 62° Northeast  Level FlightAware Approximate
01:14PM 65.9650 -55.9689 62° Northeast  Level FlightAware Approximate
01:15PM 65.9905 -55.8503 62° Northeast  Level FlightAware Approximate
01:16PM 66.0159 -55.7315 62° Northeast  Level FlightAware Approximate
01:17PM 66.0413 -55.6125 62° Northeast  Level FlightAware Approximate
01:18PM 66.0665 -55.4932 63° Northeast  Level FlightAware Approximate
01:19PM 66.0917 -55.3737 63° Northeast  Level FlightAware Approximate
01:20PM 66.1168 -55.2539 63° Northeast  Level FlightAware Approximate
01:21PM 66.1417 -55.1339 63° Northeast  Level FlightAware Approximate
01:22PM 66.1666 -55.0137 63° Northeast  Level FlightAware Approximate
01:23PM 66.1914 -54.8932 63° Northeast  Level FlightAware Approximate
01:24PM 66.2161 -54.7725 63° Northeast  Level FlightAware Approximate
01:25PM 66.2407 -54.6516 63° Northeast  Level FlightAware Approximate
01:26PM 66.2652 -54.5304 63° Northeast  Level FlightAware Approximate
01:27PM 66.2896 -54.4090 64° Northeast  Level FlightAware Approximate
01:28PM 66.3139 -54.2873 64° Northeast  Level FlightAware Approximate
01:29PM 66.3381 -54.1655 64° Northeast  Level FlightAware Approximate
01:30PM 66.3622 -54.0434 64° Northeast  Level FlightAware Approximate
01:31PM 66.3863 -53.9210 64° Northeast  Level FlightAware Approximate
01:32PM 66.4102 -53.7984 64° Northeast  Level FlightAware Approximate
01:33PM 66.4340 -53.6756 64° Northeast  Level FlightAware Approximate
01:34PM 66.4578 -53.5525 64° Northeast  Level FlightAware Approximate
01:35PM 66.4814 -53.4292 64° Northeast  Level FlightAware Approximate
01:36PM 66.5050 -53.3057 65° Northeast  Level FlightAware Approximate
01:37PM 66.5284 -53.1820 65° Northeast  Level FlightAware Approximate
01:38PM 66.5518 -53.0580 65° Northeast  Level FlightAware Approximate
01:39PM 66.5750 -52.9338 65° Northeast  Level FlightAware Approximate
01:40PM 66.5982 -52.8093 65° Northeast  Level FlightAware Approximate
01:41PM 66.6212 -52.6846 65° Northeast  Level FlightAware Approximate
01:42PM 66.6442 -52.5597 59° Northeast  Level FlightAware Approximate
01:43PM 66.6715 -52.4428 65° Northeast  Level FlightAware Approximate
01:44PM 66.6948 -52.3180 66° East  Level FlightAware Approximate
01:45PM 66.7170 -52.1919 66° East  Level FlightAware Approximate
01:46PM 66.7392 -52.0656 67° East  Level FlightAware Approximate
01:47PM 66.7605 -51.9382 66° East  Level FlightAware Approximate
01:48PM 66.7825 -51.8115 66° East  Level FlightAware Approximate
01:49PM 66.8044 -51.6846 66° East  Level FlightAware Approximate
01:50PM 66.8262 -51.5575 67° East  Level FlightAware Approximate
01:51PM 66.8479 -51.4301 70° East  Level FlightAware Approximate
01:52PM 66.8667 -51.2997 66° East  Level FlightAware Approximate
01:53PM 66.8887 -51.1724 66° East  Level FlightAware Approximate
01:54PM 66.9107 -51.0450 66° East  Level FlightAware Approximate
01:55PM 66.9325 -50.9173 67° East  Level FlightAware Approximate
01:56PM 66.9542 -50.7894 67° East  Level FlightAware Approximate
01:57PM 66.9759 -50.6613 345° North  Level FlightAware Approximate
01:58PM 67.0287 -50.6973 185° South  Level Estimated
01:59PM 67.0167 -50.7000 86° East  Level FlightAware Approximate
02:00PM 67.0205 -50.5605 266° West  Level Estimated
02:01PM 67.0167 -50.7000 86° East  Level FlightAware Approximate
02:02PM 67.0205 -50.5605 266° West  Level Estimated
02:03PM 67.0167 -50.7000 86° East  Level FlightAware Approximate
02:04PM 67.0205 -50.5605 266° West  Level Estimated
02:05PM 67.0167 -50.7000 86° East  Level FlightAware Approximate
02:06PM 67.0205 -50.5605 266° West  Level Estimated
02:07PM 67.0167 -50.7000 86° East  Level FlightAware Approximate
02:08PM 67.0205 -50.5605 266° West  Level Estimated
02:09PM 67.0167 -50.7000 86° East  Level FlightAware Approximate
02:10PM 67.0205 -50.5605 86° East  Level Estimated